KMMT

Mc Entire Jngb Airport

Eastover, South Carolina, USA
METAR KMMT 181556Z 27003KT 10SM SCT013 BKN120 BKN250 15/08 A3019 RMK AO2A SLP226 T01450078 $
Observed Flight Rules
Dec-18 @ 15:56 UTC (42 minutes ago) Visual Flight Rules
Wind Visibility Clouds
270° at 3 knots 10 miles
  • Scattered at 1,300' AGL
  • Broken at 12,000' AGL
  • Broken at 25,000' AGL
Temperatures Readings
Current 15°C / 59°F
Dewpoint 8°C / 46°F
Humidity 63%
Altimeter 30.19" Hg
Pressure 1022.6 hPa
Elevation 77
METAR KMMT 181556Z 27003KT 10SM SCT013 BKN120 BKN250 15/08 A3019 RMK AO2A SLP226 T01450078 $
Observed Flight Rules
Dec-18 @ 15:56 UTC
(42 minutes ago)
VFR
Wind Visibility
270° at 3 knots 10 miles
Clouds
  • Scattered at 1,300' AGL
  • Broken at 12,000' AGL
  • Broken at 25,000' AGL
Temperature Dewpoint
15°C / 59°F 8°C / 46°F
Humidity Altimeter Pressure
63% 30.19" Hg 1022.6 hPa